Logo AVAMET
Benvolgut visitant, si us plau, ingressa Recuperar contrasenya
AVAMET paisatges

Inforatge Alberic Urb. Sant Cristòfol

Dades diàries. Acumulats / Últims 30 dies disponibles

Data Temperatura (°C) Humitat rel. (%) Pressió rel. (hPa) Vent (km/h) Precipitació
Mínima Mitjana Màxima Amplitud
tèrmica
Mínima Mitjana Màxima Mínima Mitjana Màxima Predom. Mitjana Ràfega
màxima
Total
(mm)
Índex-n
Mínima Mitjana Màxima Mínima Mitjana Màxima n
0 a 1
P0 max
mm 5'
Dades mensuals acumulades fins l'últim dia disponible
03/2020 6,6 10,5 16,8 13,8 8,6 18,1 27,1 20,5 24 72 98 1.000 1.018 1.029   6,2 74,0 123,4
Dades anuals acumulades fins l'últim dia disponible
2020 2,6 9,5 16,8 13,2 6,4 17,9 27,1 24,5 23 72 99 1.000 1.023 1.035   4,8 74,0 294,8
Últims 30 dies disponibles
30-03-2020 7,4     11,6     16,9 9,5 52 78 95 1.013 1.014 1.015 NE 5,3 29,0 1,2
29-03-2020 8,6     15,9     23,1 14,5 32 56 80 1.013 1.016 1.020 WSW 4,0 20,9 0,0
28-03-2020 6,6     11,3     16,1 9,5 50 71 92 1.016 1.018 1.020 NE 2,6 20,9 0,0
27-03-2020 6,6     7,8     8,6 2,0 80 90 95 1.012 1.014 1.017 N 1,8 19,3 6,2 0,20
26-03-2020 7,2     10,7     17,1 9,9 38 75 95 1.007 1.010 1.014 NE 3,9 35,4 0,0
25-03-2020 7,7     8,6     10,6 2,9 83 93 95 1.014 1.017 1.018 NE 1,8 25,7 9,0 0,48 1,00
24-03-2020 10,4     11,8     13,0 2,6 81 92 97 1.015 1.016 1.018 NE 15,6 41,8 46,8 0,72 3,60
23-03-2020 11,3     12,8     15,1 3,8 85 95 98 1.014 1.016 1.017 NE 7,9 33,8 11,6 0,33 1,40
22-03-2020 9,2     10,9     13,3 4,1 84 95 97 1.011 1.013 1.015 NE 2,9 19,3 8,8 0,37 0,40
21-03-2020 9,4     11,2     12,3 2,9 85 92 95 1.012 1.014 1.018 N 3,4 19,3 17,8 0,27 1,60
20-03-2020 11,1     12,1     14,2 3,1 81 93 96 1.017 1.019 1.021 NE 5,3 20,9 1,0
19-03-2020 11,3     12,1     13,3 2,0 89 93 96 1.021 1.023 1.026 N 3,9 19,3 0,8
18-03-2020 11,3     13,1     15,9 4,6 67 86 94 1.025 1.027 1.029 NE 7,1 29,0 0,0
17-03-2020 7,8     10,6     13,3 5,5 85 95 97 1.019 1.024 1.029 NE 4,8 35,4 17,2 0,60 1,80
16-03-2020 7,3     10,3     13,4 6,1 77 88 96 1.011 1.014 1.020 W 4,0 35,4 3,0
15-03-2020 12,3     14,6     18,9 6,6 69 82 90 1.014 1.017 1.021 N 4,2 24,1 0,0
14-03-2020 10,2     14,4     21,2 11,0 54 81 93 1.019 1.020 1.022 N 3,7 25,7 0,0
13-03-2020 10,7     13,8     17,4 6,7 71 86 97 1.019 1.020 1.022 NE 2,9 24,1 0,0
12-03-2020 12,7     17,0     23,7 11,0 49 67 95 1.017 1.020 1.023 NE 2,7 20,9 0,0
11-03-2020 13,6     19,3     27,1 13,5 32 53 81 1.022 1.023 1.024 SW 3,2 24,1 0,0
10-03-2020 11,9     17,3     25,2 13,3 31 48 72 1.023 1.024 1.027 SW 1,4 17,7 0,0
09-03-2020 12,7     17,2     23,3 10,6 27 46 63 1.020 1.022 1.024 W 6,1 35,4 0,0
08-03-2020 10,2     16,3     23,9 13,7 24 50 80 1.020 1.023 1.025 W 4,5 32,2 0,0
07-03-2020 9,4     13,8     20,3 10,9 35 45 54 1.021 1.023 1.025 WNW 7,1 37,0 0,0
06-03-2020 10,8     14,1     18,1 7,3 28 45 63 1.014 1.016 1.022 W 10,0 45,1 0,0
05-03-2020 13,8     17,5     22,2 8,4 43 55 69 1.009 1.013 1.017 W 8,9 49,9 0,0
04-03-2020 16,8     18,8     22,2 5,4 48 60 70 1.015 1.018 1.020 W 14,8 61,2 0,0
03-03-2020 10,3     14,9     19,9 9,6 45 54 65 1.011 1.016 1.019 W 14,3 72,4 0,0
02-03-2020 11,9     16,8     20,9 9,0 32 48 61 1.000 1.008 1.018 W 18,5 74,0 0,0
01-03-2020 14,3     17,1     21,0 6,7 46 57 69 1.011 1.014 1.017 W 10,0 46,7 0,0
Últims 13 mesos disponibles
02/2020 6,6 10,4 14,4 14,9 12,9 20,6 25,6 19,0 41 69 94 1.014 1.026 1.033 W 4,0 49,9 6,4
01/2020 2,6 7,6 13,7 11,0 6,4 15,1 19,3 16,7 54 75 98 1.016 1.025 1.033 W 4,1 64,4 165,0
12/2019 4,9 10,6 16,8 13,5 10,9 17,1 24,3 19,4 52 72 98 1.002 1.019 1.033 W 7,3 88,5 99,6
11/2019 5,7 11,6 20,4 14,9 14,7 18,7 26,4 20,7 48 60 77 999 1.012 1.019 W 8,2 75,6 5,8
10/2019 10,6 16,0 20,3 20,0 15,8 25,1 33,4 22,8 41 69 89 1.008 1.017 1.022 W 3,4 48,3 30,8
09/2019 14,2 19,7 23,3 23,3 20,8 27,9 34,5 20,3 37 74 90 1.011 1.018 1.025 SSE 4,9 46,7 109,4
08/2019 17,3 21,8 25,6 26,4 27,3 32,4 41,0 23,7 41 69 82 1.012 1.017 1.021 SE 5,2 40,7 9,4
07/2019 20,5 22,2 24,6 26,9 28,1 32,6 37,6 17,1 44 66 81 1.007 1.015 1.022 SE 6,0 48,3 2,6
06/2019 12,9 17,7 22,6 23,1 22,1 29,0 38,2 25,3 35 61 81 1.010 1.016 1.023 ESE 5,6 53,7 0,0
05/2019 9,6 14,2 20,1 18,9 17,8 24,7 31,6 22,0 48 65 85 1.006 1.016 1.025 ESE 5,1 50,0 11,4
04/2019 8,3 11,3 14,8 14,9 13,6 19,8 28,8 20,5 38 67 95 1.000 1.014 1.026 SO 7,2 55,6 131,8
03/2019 6,9 10,1 15,6 14,9 12,0 20,6 28,6 21,7 27 56 92 1.012 1.023 1.030 SE 4,6 53,7 50,6
02/2019 4,3 8,1 12,7 12,5 12,8 18,3 26,1 21,8 33 60 83 996 1.025 1.034 S 4,9 69,3 0,2
Tots els anys disponibles
2019 2,0 14,3 25,6 18,4 10,9 23,6 41,0 39,0 27 65 98 996 1.018 1.034 SE 5,7 88,5 451,8
Temperatura (°C)
Humitat relativa (%)
Velocitat del vent i ràfega màxima (km/h)
Direcció del vent (°)
Pressió (hPa)
Precipitació (mm)
Nota sobre les dades: s'avisa a l'usuari de la provisionalitat i no oficialitat d'aquestes dades
Logo AVAMET blanc
Web allotjada a Sollutia
Llicència de Creative CommonsLa web d'AVAMET i els seus continguts estan subjectes a una llicència de
Reconeixement - No Comercial - Compartir igual
Últimes estacions:  Altea - Com. Regants (Soci), Almoines (Inforatge), Beniparrell (Inforatge), Albal (Inforatge), Almussafes - Parc Industrial (Inforatge), La Vilavella (Soci), la Serratella (soci) - - -